Springdale, UT

12:40 MDT le 01 septembre 2014 (GMT -0600)
St. George | Change Station
CLOSE
Current Station
Aéroport
Location: St. George,
Altitude: 2884 ft
Stations météo à proximité

Alt. 2884 ft 37.04 °N, 113.51 °W | Updated 991 days ago

Clear
85 ° F
Paraît 85 ° F
N
10
Vent Variable Vent de Ouest
Gusts 13 mph

Aujourd'hui
Haut(e) -- | Bas -- ° F
--% Risque de précip.
Hier
Haut(e) -- | Bas -- ° F
Precip. -- pouce
7:02 AM 8:00 PM
Lune montante, 43% visible
Pression 30.22 pouce
Visibilité 10.0 Miles terrestres
Nuages Ciel dégagé
Point de rosée 40 ° F
Humidité 20%
Précipitations 0.00 pouce
Profondeur de la couche neigeuse Non disponible.
UV 3 sur 12
Pollen 7.40 sur 12
Qualité de l'air Non disponible.
Flu Activity Non disponible.
METAR KDXZ 141935Z 00000KT 10SM CLR 06/01 A3022 RMK AO1

More Conditions Fewer Conditions

Pression 30.22 pouce
Visibilité 10.0 Miles terrestres
Nuages Ciel dégagé
Point de rosée 40 ° F
Humidité 20%
Précipitations 0.00 pouce
Profondeur de la couche neigeuse Non disponible.
UV 3 sur 12
Pollen 7.40 sur 12
Qualité de l'air Non disponible.
Flu Activity Non disponible.
METAR KDXZ 141935Z 00000KT 10SM CLR 06/01 A3022 RMK AO1

More Conditions Fewer Conditions

10-Day Weather Forecast

Almanac

Astronomie

Sep. 01, 2014 Lever Coucher
Temps réel 07:02 MDT 20:00 MDT
Crépuscule civil 06:36 MDT 20:27 MDT
Crépuscule nautique 06:04 MDT 20:58 MDT
Crépuscule astronomique 05:31 MDT 21:31 MDT
Lune 13:43 MDT Pas de coucher de lune
Durée de lumière visible 13h 51m
Longueur du jour
12h 57m
Tomorrow will be 2m 17s shorter.
Lune montante, 43% of the Moon is Illuminated
Aujourd'hui
Lune montante
Sep 2
Premier quartier
Sep 8
Pleine lune
Sep 15
Dernier quartier
Sep 24
Nouveau

Extrêmes aujourd'hui

State Highs State Lows

Community

WunderPhotos

Upload Photos

1,749,350 Photos téléchargées !

Nearby

Épaisseur de neige

Station Depth Altitude
Midway Valley 2 in 9800 ft
Long Valley Jct 0 in 7360 ft
Agua Canyon 3 in 8900 ft
Gooseberry R.S. 0 in 7920 ft
Clear Creek #2 1 in 8300 ft

Activité sismique

Ville Distance Mag. Time & Date
No recent earthquake activity has been reported nearby.
Minimum magnitude displayed is 2.5.

Températures des eaux côtières

Lieu Température
Aucun rapport de station

Stations météo à proximité